Madrid, Spain
Current Conditions -  °F | °C
As of 6:00 PM on Thursday 27 Nov 2014 (Local Time) from LEVS Reporting Station
Broken Clouds Broken Clouds  
Wind Chill: 52°   Ceiling: 3300
Heat Index: 52°   Visibility: 6mi
Dew Point: 46°   Wind: 7mph
Humidity: 82%   Direction: 150°SSE
Pressure: 29.41"   Gusts: NA
Location:  40.42°N, 3.7°W
Report Text: LEVS 271700Z 15006KT 110V180 9999 FEW020 BKN033 11/08 Q0996
Loading
Personal Weather Stations






























Interactive Weather Map New forecast layout! Learn more

10-Day Weather Forecast

Advertisements
Track Severe Weather on mobile